createdAt,value
2022-10-26T00:02:12.155Z,12.39
2022-10-26T00:04:40.579Z,12.30
2022-10-26T00:07:09.209Z,12.38
2022-10-26T00:09:37.566Z,12.36
2022-10-26T00:12:06.243Z,12.23
2022-10-26T00:14:36.346Z,12.35
2022-10-26T00:17:04.622Z,12.39
2022-10-26T00:19:35.308Z,12.31
2022-10-26T00:22:03.870Z,12.39
2022-10-26T00:24:32.148Z,12.37
2022-10-26T00:27:00.393Z,12.36
2022-10-26T00:29:28.954Z,12.33
2022-10-26T00:31:58.590Z,12.38
2022-10-26T00:34:26.918Z,12.38
2022-10-26T00:36:55.199Z,12.46
2022-10-26T00:39:23.552Z,12.46
2022-10-26T00:41:51.815Z,12.46
2022-10-26T00:44:49.814Z,12.64
2022-10-26T00:47:21.035Z,12.57
2022-10-26T00:49:49.336Z,12.53
2022-10-26T00:52:17.588Z,12.54
2022-10-26T00:54:45.944Z,12.58
2022-10-26T00:57:14.295Z,12.58
2022-10-26T00:59:42.636Z,12.65
2022-10-26T01:02:10.897Z,12.75
2022-10-26T01:04:40.614Z,12.75
2022-10-26T01:07:09.234Z,12.73
2022-10-26T01:09:37.565Z,12.77
2022-10-26T01:12:06.446Z,12.93
2022-10-26T01:14:34.720Z,12.89
2022-10-26T01:17:05.481Z,12.83
2022-10-26T01:20:04.852Z,12.97
2022-10-26T01:22:34.848Z,12.85
2022-10-26T01:25:08.212Z,12.72
2022-10-26T01:27:37.031Z,12.80
2022-10-26T01:30:18.475Z,12.84
2022-10-26T01:32:49.568Z,12.72
2022-10-26T01:35:19.521Z,12.76
2022-10-26T01:37:49.748Z,12.87
2022-10-26T01:40:20.332Z,12.91
2022-10-26T01:42:51.536Z,12.85
2022-10-26T01:45:21.321Z,12.89
2022-10-26T01:47:50.028Z,12.87
2022-10-26T01:50:18.855Z,12.80
2022-10-26T01:52:49.387Z,12.89
2022-10-26T01:55:41.477Z,13.02
2022-10-26T01:58:15.035Z,12.96
2022-10-26T02:00:47.718Z,12.90
2022-10-26T02:03:17.005Z,12.92
2022-10-26T02:08:47.206Z,13.05
2022-10-26T02:11:22.678Z,13.08
2022-10-26T02:13:54.400Z,13.02
2022-10-26T02:16:26.363Z,13.24
2022-10-26T02:18:58.038Z,13.23
2022-10-26T02:21:27.712Z,13.18
2022-10-26T02:23:57.099Z,13.21
2022-10-26T02:26:26.991Z,13.18
2022-10-26T02:29:09.472Z,13.35
2022-10-26T02:31:39.594Z,13.25
2022-10-26T02:34:09.270Z,13.38
2022-10-26T02:36:39.192Z,13.28
2022-10-26T02:39:07.995Z,13.29
2022-10-26T02:41:36.618Z,13.42
2022-10-26T02:44:09.239Z,13.42
2022-10-26T02:46:39.612Z,13.34
2022-10-26T02:49:08.459Z,13.32
2022-10-26T02:51:38.988Z,13.38
2022-10-26T02:54:11.806Z,13.47
2022-10-26T02:56:43.734Z,13.45
2022-10-26T02:59:12.044Z,13.48
2022-10-26T03:01:42.134Z,13.59
2022-10-26T03:04:11.028Z,13.45
2022-10-26T03:06:39.591Z,13.58
2022-10-26T03:09:08.008Z,13.42
2022-10-26T03:11:36.560Z,13.51
2022-10-26T03:14:05.096Z,13.59
2022-10-26T03:16:33.803Z,13.56
2022-10-26T03:19:03.922Z,13.51
2022-10-26T03:21:32.681Z,13.53
2022-10-26T03:24:01.638Z,13.52
2022-10-26T03:26:30.033Z,13.51
2022-10-26T03:28:58.402Z,13.59
2022-10-26T03:31:27.676Z,13.51
2022-10-26T03:33:55.953Z,13.57
2022-10-26T03:36:25.584Z,13.60
2022-10-26T03:38:53.908Z,13.56
2022-10-26T03:41:22.571Z,13.53
2022-10-26T03:43:50.833Z,13.74
2022-10-26T03:46:19.263Z,13.75
2022-10-26T03:48:48.150Z,13.61
2022-10-26T03:51:16.546Z,13.61
2022-10-26T03:53:46.587Z,13.72
2022-10-26T03:56:15.324Z,13.75
2022-10-26T03:58:43.588Z,13.80
2022-10-26T04:01:11.885Z,13.69
2022-10-26T04:03:40.259Z,13.69
2022-10-26T04:06:08.848Z,13.69
2022-10-26T04:08:37.134Z,13.77
2022-10-26T04:11:07.064Z,13.69
2022-10-26T04:13:35.654Z,13.74
2022-10-26T04:16:03.891Z,13.68
2022-10-26T04:18:32.180Z,13.73
2022-10-26T04:21:03.447Z,13.67
2022-10-26T04:23:31.797Z,13.78
2022-10-26T04:26:00.073Z,13.61
2022-10-26T04:28:29.856Z,13.76
2022-10-26T04:30:58.078Z,13.66
2022-10-26T04:33:26.670Z,13.74
2022-10-26T04:35:54.886Z,13.66
2022-10-26T04:38:23.149Z,13.76
2022-10-26T04:40:52.397Z,13.72
2022-10-26T04:43:20.967Z,13.77
2022-10-26T04:45:50.574Z,13.64
2022-10-26T04:48:18.841Z,13.68
2022-10-26T04:50:47.702Z,13.58
2022-10-26T04:53:16.179Z,13.57
2022-10-26T04:55:44.488Z,13.66
2022-10-26T04:58:12.774Z,13.65
2022-10-26T05:00:41.013Z,13.56
2022-10-26T05:03:11.061Z,13.51
2022-10-26T05:05:39.583Z,13.56
2022-10-26T05:08:10.421Z,13.45
2022-10-26T05:10:41.279Z,13.47
2022-10-26T05:13:10.548Z,13.39
2022-10-26T05:15:38.773Z,13.41
2022-10-26T05:18:08.442Z,13.45
2022-10-26T05:20:38.090Z,13.47
2022-10-26T05:23:07.060Z,13.45
2022-10-26T05:25:36.955Z,13.51
2022-10-26T05:28:06.124Z,13.60
2022-10-26T05:30:34.828Z,13.48
2022-10-26T05:33:03.529Z,13.58
2022-10-26T05:35:32.128Z,13.76
2022-10-26T05:38:02.208Z,13.56
2022-10-26T05:40:30.450Z,13.54
2022-10-26T05:43:02.168Z,13.72
2022-10-26T05:45:30.602Z,13.59
2022-10-26T05:48:02.536Z,13.63
2022-10-26T05:50:31.837Z,13.58
2022-10-26T05:53:01.474Z,13.68
2022-10-26T05:55:30.374Z,13.66
2022-10-26T05:57:59.153Z,13.72
2022-10-26T06:00:28.975Z,13.67
2022-10-26T06:03:06.819Z,13.71
2022-10-26T06:05:37.657Z,13.73
2022-10-26T06:08:12.191Z,13.69
2022-10-26T06:10:42.118Z,13.80
2022-10-26T06:13:11.901Z,13.70
2022-10-26T06:15:47.501Z,13.90
2022-10-26T06:18:19.895Z,13.92
2022-10-26T06:20:52.287Z,13.99
2022-10-26T06:23:35.474Z,13.86
2022-10-26T06:26:06.666Z,13.82
2022-10-26T06:28:45.084Z,13.89
2022-10-26T06:31:16.078Z,13.83
2022-10-26T06:33:44.621Z,14.05
2022-10-26T06:36:19.731Z,13.98
2022-10-26T06:38:49.774Z,14.08
2022-10-26T06:41:19.496Z,14.18
2022-10-26T06:43:48.413Z,14.12
2022-10-26T06:46:22.451Z,14.06
2022-10-26T06:49:10.819Z,14.08
2022-10-26T06:51:42.660Z,14.27
2022-10-26T06:54:15.430Z,14.27
2022-10-26T06:56:43.707Z,14.22
2022-10-26T06:59:16.790Z,14.17
2022-10-26T07:01:45.140Z,14.24
2022-10-26T07:04:13.588Z,14.28
2022-10-26T07:06:41.803Z,14.33
2022-10-26T07:09:10.153Z,14.19
2022-10-26T07:11:39.754Z,14.22
2022-10-26T07:14:08.741Z,14.30
2022-10-26T07:16:37.606Z,14.26
2022-10-26T07:19:05.945Z,14.30
2022-10-26T07:21:34.605Z,14.46
2022-10-26T07:24:02.908Z,14.32
2022-10-26T07:26:31.356Z,14.47
2022-10-26T07:29:01.724Z,14.44
2022-10-26T07:31:30.011Z,14.41
2022-10-26T07:33:58.407Z,14.47
2022-10-26T07:36:26.929Z,14.49
2022-10-26T07:38:55.494Z,14.65
2022-10-26T07:41:41.312Z,14.94
2022-10-26T07:44:11.505Z,14.72
2022-10-26T07:46:39.885Z,14.62
2022-10-26T07:49:08.121Z,14.62
2022-10-26T07:51:36.801Z,14.73
2022-10-26T07:54:23.393Z,14.79
2022-10-26T07:56:51.766Z,14.76
2022-10-26T07:59:21.440Z,14.82
2022-10-26T08:01:49.843Z,14.68
2022-10-26T08:04:18.167Z,14.91
2022-10-26T08:06:47.369Z,14.70
2022-10-26T08:09:15.647Z,14.70
2022-10-26T08:11:44.247Z,14.84
2022-10-26T08:14:31.245Z,14.73
2022-10-26T08:17:01.294Z,14.73
2022-10-26T08:19:29.879Z,14.69
2022-10-26T08:21:59.240Z,14.72
2022-10-26T08:24:27.513Z,14.93
2022-10-26T08:26:55.728Z,14.94
2022-10-26T08:29:24.324Z,15.12
2022-10-26T08:31:52.594Z,15.14
2022-10-26T08:34:22.387Z,15.12
2022-10-26T08:36:51.643Z,15.08
2022-10-26T08:39:20.372Z,15.25
2022-10-26T08:41:52.925Z,15.37
2022-10-26T08:44:25.556Z,15.20
2022-10-26T08:46:55.930Z,15.38
2022-10-26T08:49:26.683Z,15.36
2022-10-26T08:51:56.449Z,15.24
2022-10-26T08:54:30.133Z,15.21
2022-10-26T08:57:00.168Z,15.32
2022-10-26T08:59:32.526Z,15.34
2022-10-26T09:02:02.971Z,15.38
2022-10-26T09:04:34.536Z,15.33
2022-10-26T09:07:06.525Z,15.51
2022-10-26T09:09:40.356Z,15.59
2022-10-26T09:12:11.187Z,15.93
2022-10-26T09:14:43.775Z,15.92
2022-10-26T09:17:14.717Z,16.08
2022-10-26T09:19:58.090Z,16.15
2022-10-26T09:23:17.493Z,15.80
2022-10-26T09:25:53.502Z,15.78
2022-10-26T09:28:22.769Z,15.79
2022-10-26T09:30:51.057Z,15.52
2022-10-26T09:33:20.215Z,15.67
2022-10-26T09:35:51.417Z,15.68
2022-10-26T09:38:22.484Z,15.59
2022-10-26T09:40:54.102Z,15.88
2022-10-26T09:43:24.805Z,15.99
2022-10-26T09:45:53.727Z,16.22
2022-10-26T09:48:29.513Z,15.97
2022-10-26T09:51:03.668Z,16.03
2022-10-26T09:53:33.138Z,16.12
2022-10-26T09:56:03.637Z,16.20
2022-10-26T09:58:33.236Z,16.33
2022-10-26T10:01:01.482Z,16.04
2022-10-26T10:03:30.855Z,16.32
2022-10-26T10:06:17.182Z,16.41
2022-10-26T10:08:46.758Z,16.44
2022-10-26T10:11:15.592Z,16.82
2022-10-26T10:13:44.638Z,16.65
2022-10-26T10:16:14.770Z,16.93
2022-10-26T10:18:43.336Z,16.75
2022-10-26T10:21:14.430Z,17.07
2022-10-26T10:23:49.779Z,16.90
2022-10-26T10:26:18.036Z,16.84
2022-10-26T10:28:57.678Z,17.06
2022-10-26T10:31:29.111Z,17.08
2022-10-26T10:33:57.424Z,17.18
2022-10-26T10:36:29.932Z,17.23
2022-10-26T10:38:59.476Z,17.21
2022-10-26T10:41:30.642Z,17.18
2022-10-26T10:44:02.935Z,17.32
2022-10-26T10:46:31.638Z,17.13
2022-10-26T10:49:05.020Z,17.39
2022-10-26T10:51:38.019Z,17.37
2022-10-26T10:54:07.055Z,17.39
2022-10-26T10:56:37.897Z,17.49
2022-10-26T10:59:18.092Z,17.78
2022-10-26T11:01:49.641Z,17.53
2022-10-26T11:04:27.448Z,17.65
2022-10-26T11:06:57.922Z,17.71
2022-10-26T11:09:30.740Z,17.76
2022-10-26T11:12:06.796Z,17.82
2022-10-26T11:14:43.299Z,17.83
2022-10-26T11:17:20.352Z,17.94
2022-10-26T11:19:50.668Z,17.87
2022-10-26T11:22:22.642Z,17.98
2022-10-26T11:24:51.939Z,17.96
2022-10-26T11:27:23.817Z,17.96
2022-10-26T11:29:54.909Z,18.07
2022-10-26T11:32:24.441Z,18.19
2022-10-26T11:34:55.484Z,18.13
2022-10-26T11:37:27.375Z,18.07
2022-10-26T11:40:25.501Z,17.98
2022-10-26T11:43:07.340Z,18.19
2022-10-26T11:48:35.821Z,18.27
2022-10-26T11:51:04.461Z,18.48
2022-10-26T11:53:37.023Z,18.44
2022-10-26T11:56:05.579Z,18.48
2022-10-26T11:58:37.853Z,18.47
2022-10-26T12:01:12.999Z,18.44
2022-10-26T12:03:45.723Z,18.61
2022-10-26T12:06:14.264Z,18.69
2022-10-26T12:08:45.222Z,18.76
2022-10-26T12:11:15.988Z,18.68
2022-10-26T12:13:46.960Z,18.82
2022-10-26T12:16:20.404Z,19.09
2022-10-26T12:18:55.584Z,19.26
2022-10-26T12:21:26.882Z,19.29
2022-10-26T12:23:58.849Z,19.00
2022-10-26T12:26:42.219Z,19.10
2022-10-26T12:29:37.267Z,19.22
2022-10-26T12:32:09.222Z,19.23
2022-10-26T12:34:58.887Z,19.09
2022-10-26T12:37:33.686Z,18.92
2022-10-26T12:40:33.833Z,19.15
2022-10-26T12:43:34.766Z,18.93
2022-10-26T12:46:32.575Z,19.10
2022-10-26T12:49:01.198Z,18.97
2022-10-26T12:51:43.465Z,18.87
2022-10-26T12:54:30.018Z,19.08
2022-10-26T12:57:02.245Z,19.11
2022-10-26T12:59:34.256Z,19.00
2022-10-26T13:02:27.171Z,19.03
2022-10-26T13:05:14.871Z,18.85
2022-10-26T13:07:44.017Z,19.13
2022-10-26T13:10:35.011Z,19.01
2022-10-26T13:15:59.958Z,18.96
2022-10-26T13:18:28.905Z,18.98
2022-10-26T13:21:02.727Z,19.10
2022-10-26T13:26:19.089Z,19.15
2022-10-26T13:28:51.524Z,19.18
2022-10-26T13:31:49.679Z,19.19
2022-10-26T13:34:20.403Z,19.43
2022-10-26T13:36:51.924Z,19.26
2022-10-26T13:39:22.034Z,19.49
2022-10-26T13:41:52.669Z,19.54
2022-10-26T13:44:25.933Z,19.34
2022-10-26T13:46:56.467Z,19.35
2022-10-26T13:49:47.818Z,19.35
2022-10-26T13:52:20.131Z,19.40
2022-10-26T13:54:50.814Z,19.31
2022-10-26T13:57:22.058Z,19.33
2022-10-26T13:59:51.152Z,19.42
2022-10-26T14:02:26.474Z,19.29
2022-10-26T14:05:01.034Z,19.46
2022-10-26T14:10:42.853Z,19.37
2022-10-26T14:13:17.708Z,19.31
2022-10-26T14:15:48.388Z,19.24
2022-10-26T14:18:19.349Z,19.31
2022-10-26T14:20:52.588Z,19.31
2022-10-26T14:23:28.817Z,19.27
2022-10-26T14:25:59.304Z,19.26
2022-10-26T14:28:29.243Z,19.20
2022-10-26T14:31:15.257Z,19.36
2022-10-26T14:33:46.622Z,19.48
2022-10-26T14:36:16.335Z,19.17
2022-10-26T14:38:45.928Z,19.28
2022-10-26T14:41:15.524Z,19.15
2022-10-26T14:43:44.134Z,19.03
2022-10-26T14:46:16.233Z,19.21
2022-10-26T14:48:52.836Z,19.22
2022-10-26T14:51:23.616Z,19.07
2022-10-26T14:56:41.464Z,18.96
2022-10-26T14:59:14.210Z,18.91
2022-10-26T15:01:49.904Z,18.89
2022-10-26T15:04:29.670Z,18.85
2022-10-26T15:07:18.276Z,18.79
2022-10-26T15:09:47.518Z,18.91
2022-10-26T15:12:21.909Z,18.68
2022-10-26T15:14:50.335Z,18.71
2022-10-26T15:17:22.667Z,18.74
2022-10-26T15:19:52.101Z,18.66
2022-10-26T15:22:30.882Z,18.67
2022-10-26T15:25:02.026Z,18.76
2022-10-26T15:27:30.507Z,18.67
2022-10-26T15:30:13.737Z,18.57
2022-10-26T15:32:46.371Z,18.53
2022-10-26T15:35:31.685Z,18.51
2022-10-26T15:38:02.297Z,18.50
2022-10-26T15:40:30.881Z,18.45
2022-10-26T15:43:01.519Z,18.42
2022-10-26T15:45:31.946Z,18.26
2022-10-26T15:48:00.989Z,18.20
2022-10-26T15:50:29.942Z,18.16
2022-10-26T15:53:01.219Z,18.07
2022-10-26T15:55:31.579Z,18.11
2022-10-26T15:58:00.457Z,17.98
2022-10-26T16:00:47.033Z,17.93
2022-10-26T16:03:15.789Z,17.84
2022-10-26T16:05:44.103Z,17.75
2022-10-26T16:08:17.083Z,17.57
2022-10-26T16:10:48.413Z,17.45
2022-10-26T16:13:16.915Z,17.49
2022-10-26T16:15:45.476Z,17.40
2022-10-26T16:18:32.642Z,17.33
2022-10-26T16:21:01.210Z,17.20
2022-10-26T16:23:29.425Z,17.17
2022-10-26T16:25:59.110Z,17.12
2022-10-26T16:28:27.411Z,17.04
2022-10-26T16:31:14.478Z,17.01
2022-10-26T16:33:42.707Z,16.97
2022-10-26T16:36:11.580Z,16.82
2022-10-26T16:38:39.827Z,16.79
2022-10-26T16:43:57.062Z,16.73
2022-10-26T16:46:25.406Z,16.65
2022-10-26T16:48:53.736Z,16.65
2022-10-26T16:51:22.977Z,16.62
2022-10-26T16:53:52.639Z,16.55
2022-10-26T16:56:22.913Z,16.55
2022-10-26T16:58:51.193Z,16.37
2022-10-26T17:01:38.173Z,16.25
2022-10-26T17:04:06.697Z,16.26
2022-10-26T17:06:36.145Z,16.28
2022-10-26T17:09:04.473Z,16.25
2022-10-26T17:11:34.046Z,16.25
2022-10-26T17:14:02.347Z,16.19
2022-10-26T17:16:30.689Z,16.19
2022-10-26T17:18:59.250Z,16.14
2022-10-26T17:21:30.911Z,16.14
2022-10-26T17:24:17.179Z,16.12
2022-10-26T17:26:47.235Z,16.08
2022-10-26T17:29:15.501Z,16.05
2022-10-26T17:31:43.736Z,15.96
2022-10-26T17:34:12.183Z,15.98
2022-10-26T17:36:40.449Z,16.03
2022-10-26T17:39:08.659Z,16.01
2022-10-26T17:41:37.781Z,16.04
2022-10-26T17:44:09.410Z,16.03
2022-10-26T17:46:38.002Z,16.09
2022-10-26T17:49:06.299Z,16.11
2022-10-26T17:51:34.594Z,16.18
2022-10-26T17:54:03.168Z,16.22
2022-10-26T17:56:50.312Z,16.25
2022-10-26T17:59:20.390Z,16.21
2022-10-26T18:01:48.980Z,16.23
2022-10-26T18:04:17.729Z,16.20
2022-10-26T18:06:46.070Z,16.14
2022-10-26T18:09:14.336Z,16.13
2022-10-26T18:11:42.585Z,16.13
2022-10-26T18:14:11.331Z,16.15
2022-10-26T18:16:51.413Z,16.16
2022-10-26T18:19:19.898Z,16.17
2022-10-26T18:21:48.338Z,16.20
2022-10-26T18:24:16.733Z,16.26
2022-10-26T18:26:44.977Z,16.25
2022-10-26T18:29:14.149Z,16.33
2022-10-26T18:31:45.243Z,16.31
2022-10-26T18:34:13.554Z,16.33
2022-10-26T18:36:41.781Z,16.39
2022-10-26T18:39:10.007Z,16.45
2022-10-26T18:41:38.234Z,16.42
2022-10-26T18:44:06.459Z,16.52
2022-10-26T18:46:39.902Z,16.48
2022-10-26T18:49:14.686Z,16.42
2022-10-26T18:51:51.386Z,16.42
2022-10-26T18:54:19.708Z,16.42
2022-10-26T18:56:47.917Z,16.42
2022-10-26T18:59:16.124Z,16.41
2022-10-26T19:01:45.891Z,16.41
2022-10-26T19:04:15.835Z,16.39
2022-10-26T19:06:45.624Z,16.38
2022-10-26T19:09:13.926Z,16.31
2022-10-26T19:11:42.480Z,16.27
2022-10-26T19:14:11.002Z,16.23
2022-10-26T19:16:57.698Z,16.14
2022-10-26T19:19:27.461Z,16.13
2022-10-26T19:21:56.100Z,16.04
2022-10-26T19:24:25.024Z,16.01
2022-10-26T19:26:54.285Z,15.94
2022-10-26T19:29:23.853Z,15.93
2022-10-26T19:31:53.204Z,15.89
2022-10-26T19:34:22.394Z,15.80
2022-10-26T19:36:52.591Z,15.77
2022-10-26T19:39:22.803Z,15.75
2022-10-26T19:41:51.319Z,15.67
2022-10-26T19:44:37.075Z,15.70
2022-10-26T19:47:05.874Z,15.64
2022-10-26T19:52:21.271Z,15.54
2022-10-26T19:54:49.536Z,15.50
2022-10-26T19:57:17.737Z,15.48
2022-10-26T19:59:45.958Z,15.44
2022-10-26T20:02:14.511Z,15.46
2022-10-26T20:04:42.742Z,15.42
2022-10-26T20:07:11.199Z,15.35
2022-10-26T20:09:40.858Z,15.37
2022-10-26T20:12:12.746Z,15.29
2022-10-26T20:14:41.519Z,15.24
2022-10-26T20:17:09.736Z,15.18
2022-10-26T20:19:37.963Z,15.17
2022-10-26T20:22:06.150Z,15.16
2022-10-26T20:24:34.387Z,15.17
2022-10-26T20:27:04.064Z,15.18
2022-10-26T20:29:32.300Z,15.15
2022-10-26T20:32:00.502Z,15.09
2022-10-26T20:37:01.993Z,15.16
2022-10-26T20:39:30.971Z,15.13
2022-10-26T20:41:59.687Z,15.16
2022-10-26T20:44:31.974Z,15.18
2022-10-26T20:47:00.535Z,15.13
2022-10-26T20:49:29.415Z,15.14
2022-10-26T20:52:21.285Z,15.14
2022-10-26T20:54:53.072Z,15.05
2022-10-26T20:57:23.878Z,15.07
2022-10-26T20:59:54.189Z,15.03
2022-10-26T21:02:22.669Z,15.03
2022-10-26T21:04:51.277Z,15.01
2022-10-26T21:07:19.532Z,14.97
2022-10-26T21:09:47.737Z,14.96
2022-10-26T21:12:15.981Z,14.95
2022-10-26T21:14:44.139Z,14.94
2022-10-26T21:17:13.872Z,14.87
2022-10-26T21:19:42.681Z,14.88
2022-10-26T21:22:10.930Z,14.86
2022-10-26T21:24:39.136Z,14.86
2022-10-26T21:27:07.614Z,14.78
2022-10-26T21:29:35.767Z,14.82
2022-10-26T21:32:04.167Z,14.76
2022-10-26T21:34:33.811Z,14.77
2022-10-26T21:37:02.679Z,14.76
2022-10-26T21:39:30.839Z,14.70
2022-10-26T21:41:59.062Z,14.73
2022-10-26T21:44:40.381Z,14.66
2022-10-26T21:47:10.334Z,14.69
2022-10-26T21:52:13.401Z,14.60
2022-10-26T21:54:41.567Z,14.57
2022-10-26T21:57:09.765Z,14.60
2022-10-26T21:59:37.917Z,14.55
2022-10-26T22:02:06.506Z,14.62
2022-10-26T22:04:35.060Z,14.55
2022-10-26T22:07:04.590Z,14.57
2022-10-26T22:09:37.361Z,14.53
2022-10-26T22:12:13.418Z,14.56
2022-10-26T22:14:41.602Z,14.63
2022-10-26T22:17:10.070Z,14.59
2022-10-26T22:19:38.243Z,14.65
2022-10-26T22:22:07.752Z,14.53
2022-10-26T22:24:35.915Z,14.48
2022-10-26T22:27:04.351Z,14.51
2022-10-26T22:29:32.510Z,14.55
2022-10-26T22:32:00.650Z,14.62
2022-10-26T22:34:28.825Z,14.53
2022-10-26T22:36:56.956Z,14.45
2022-10-26T22:39:26.944Z,14.59
2022-10-26T22:41:55.081Z,14.49
2022-10-26T22:44:23.268Z,14.51
2022-10-26T22:46:51.398Z,14.49
2022-10-26T22:49:19.553Z,14.48
2022-10-26T22:51:47.691Z,14.45
2022-10-26T22:54:15.912Z,14.42
2022-10-26T22:56:45.735Z,14.43
2022-10-26T22:59:13.882Z,14.38
2022-10-26T23:01:42.164Z,14.33
2022-10-26T23:04:11.770Z,14.29
2022-10-26T23:06:40.326Z,14.32
2022-10-26T23:09:08.537Z,14.28
2022-10-26T23:11:36.703Z,14.27
2022-10-26T23:14:06.478Z,14.22
2022-10-26T23:16:34.646Z,14.20
2022-10-26T23:19:02.790Z,14.18
2022-10-26T23:21:30.955Z,14.19
2022-10-26T23:23:59.130Z,14.16
2022-10-26T23:26:27.824Z,14.14
2022-10-26T23:28:56.335Z,14.17
2022-10-26T23:31:27.014Z,14.15
2022-10-26T23:33:55.882Z,14.18
2022-10-26T23:36:24.883Z,14.17
2022-10-26T23:38:53.153Z,14.08
2022-10-26T23:41:21.502Z,14.08
2022-10-26T23:43:51.887Z,14.07
2022-10-26T23:46:22.512Z,14.06
2022-10-26T23:48:52.424Z,13.99
2022-10-26T23:51:21.043Z,14.05
2022-10-26T23:53:49.285Z,14.03
2022-10-26T23:56:17.479Z,13.99
2022-10-26T23:58:45.714Z,13.83
